Portada
METAR-TAF:

METAR-TAF

Aeroports :

Sinop, Turquia

latitud: 42-00-57N, longitud: 035-03-59E, altitud: 7 m

Observació

L'informe es va fer fa 10 hores i 55 minuts, a les 07:50 UTC
Vent 7 kt del Oest/Nord-Oest
Temperatura 11°C
Humitat 76%
Pressió 1007 hPa
Visibilitat 10 km o més
Núvols disperses a una alçada de 3000 ft
Cel cobert a una alçada de 8000 ft

METAR: LTCM 290750Z 29007KT 9999 SCT030 OVC080 11/07 Q1007

Hora: 21:45 (18:45 UTC)

Pronòstic

L'informe es va fer fa 5 hores i 5 minuts, a les 13:40 UTC
Pronòstic vàlid del 29 a les 15 UTC al 29 a les 24 UTC
Vent 8 kt del Oest/Nord-Oest
Visibilitat 10 km o més
Escasses núvols a una alçada de 1000 ft
Núvols disperses a una alçada de 3000 ft
Cel ennuvolat a una alçada de 10000 ft

TAF: LTCM 291340Z 2915/2924 30008KT 9999 FEW010 SCT030 BKN100

Observacions i pronòstics meteorològics de més de 4000 aeroports (METAR i TAF).

Les estacions disponibles són els punts grocs i vermells al mapa.

Posi el ratolí al punt desitjat per veure el nom de l'estació.

Feu clic per veure les observacions i els pronòstics meteorològics.

Per canviar el mapa: feu clic els botons verds amb una creu de color negre per apropar; al botó verd amb un guió per allunyar la imatge; o en les fletxes verdes per a mapes adjacents.


METAR-TAF: